sensor_id;sensor_type;location;lat;lon;timestamp;P1;durP1;ratioP1;P2;durP2;ratioP2
13112;SDS011;6622;49.752;6.100;2022-08-25T00:00:42;4.18;;;3.47;;
13112;SDS011;6622;49.752;6.100;2022-08-25T00:03:09;3.22;;;3.00;;
13112;SDS011;6622;49.752;6.100;2022-08-25T00:05:35;6.05;;;3.75;;
13112;SDS011;6622;49.752;6.100;2022-08-25T00:08:02;3.72;;;3.40;;
13112;SDS011;6622;49.752;6.100;2022-08-25T00:10:28;5.65;;;3.20;;
13112;SDS011;6622;49.752;6.100;2022-08-25T00:12:55;4.68;;;3.33;;
13112;SDS011;6622;49.752;6.100;2022-08-25T00:15:22;5.22;;;3.40;;
13112;SDS011;6622;49.752;6.100;2022-08-25T00:17:48;4.03;;;3.30;;
13112;SDS011;6622;49.752;6.100;2022-08-25T00:20:15;7.23;;;3.60;;
13112;SDS011;6622;49.752;6.100;2022-08-25T00:22:41;4.93;;;3.87;;
13112;SDS011;6622;49.752;6.100;2022-08-25T00:25:08;5.57;;;3.70;;
13112;SDS011;6622;49.752;6.100;2022-08-25T00:27:35;8.50;;;3.50;;
13112;SDS011;6622;49.752;6.100;2022-08-25T00:30:03;4.07;;;3.27;;
13112;SDS011;6622;49.752;6.100;2022-08-25T00:32:29;4.25;;;3.60;;
13112;SDS011;6622;49.752;6.100;2022-08-25T00:34:55;7.15;;;3.55;;
13112;SDS011;6622;49.752;6.100;2022-08-25T00:37:22;3.80;;;3.47;;
13112;SDS011;6622;49.752;6.100;2022-08-25T00:39:49;4.50;;;3.47;;
13112;SDS011;6622;49.752;6.100;2022-08-25T00:42:16;4.60;;;3.20;;
13112;SDS011;6622;49.752;6.100;2022-08-25T00:44:43;5.97;;;3.63;;
13112;SDS011;6622;49.752;6.100;2022-08-25T00:47:09;5.73;;;3.23;;
13112;SDS011;6622;49.752;6.100;2022-08-25T00:49:41;4.57;;;3.77;;
13112;SDS011;6622;49.752;6.100;2022-08-25T00:52:10;3.80;;;2.93;;
13112;SDS011;6622;49.752;6.100;2022-08-25T00:54:39;7.93;;;3.70;;
13112;SDS011;6622;49.752;6.100;2022-08-25T00:57:08;4.50;;;3.77;;
13112;SDS011;6622;49.752;6.100;2022-08-25T00:59:34;4.90;;;3.90;;
13112;SDS011;6622;49.752;6.100;2022-08-25T01:02:00;5.57;;;3.90;;
13112;SDS011;6622;49.752;6.100;2022-08-25T01:04:27;4.40;;;3.60;;
13112;SDS011;6622;49.752;6.100;2022-08-25T01:06:53;4.20;;;3.80;;
13112;SDS011;6622;49.752;6.100;2022-08-25T01:09:20;3.40;;;3.10;;
13112;SDS011;6622;49.752;6.100;2022-08-25T01:11:47;3.77;;;3.47;;
13112;SDS011;6622;49.752;6.100;2022-08-25T01:14:14;4.67;;;3.70;;
13112;SDS011;6622;49.752;6.100;2022-08-25T01:16:40;4.40;;;3.33;;
13112;SDS011;6622;49.752;6.100;2022-08-25T01:19:08;7.97;;;3.43;;
13112;SDS011;6622;49.752;6.100;2022-08-25T01:21:41;4.20;;;3.75;;
13112;SDS011;6622;49.752;6.100;2022-08-25T01:24:03;3.60;;;3.30;;
13112;SDS011;6622;49.752;6.100;2022-08-25T01:26:32;4.03;;;3.43;;
13112;SDS011;6622;49.752;6.100;2022-08-25T01:28:59;5.97;;;3.53;;
13112;SDS011;6622;49.752;6.100;2022-08-25T01:31:42;5.03;;;3.63;;
13112;SDS011;6622;49.752;6.100;2022-08-25T01:34:09;5.23;;;3.63;;
13112;SDS011;6622;49.752;6.100;2022-08-25T01:36:35;3.83;;;2.97;;
13112;SDS011;6622;49.752;6.100;2022-08-25T01:39:02;3.80;;;3.17;;
13112;SDS011;6622;49.752;6.100;2022-08-25T01:43:56;4.10;;;3.40;;
13112;SDS011;6622;49.752;6.100;2022-08-25T01:46:23;4.20;;;3.53;;
13112;SDS011;6622;49.752;6.100;2022-08-25T01:48:49;4.43;;;3.70;;
13112;SDS011;6622;49.752;6.100;2022-08-25T01:51:18;4.93;;;3.17;;
13112;SDS011;6622;49.752;6.100;2022-08-25T01:53:43;9.13;;;3.50;;
13112;SDS011;6622;49.752;6.100;2022-08-25T01:56:11;4.90;;;3.97;;
13112;SDS011;6622;49.752;6.100;2022-08-25T01:58:38;4.30;;;3.57;;
13112;SDS011;6622;49.752;6.100;2022-08-25T02:01:05;6.03;;;3.37;;
13112;SDS011;6622;49.752;6.100;2022-08-25T02:03:30;4.60;;;3.57;;
13112;SDS011;6622;49.752;6.100;2022-08-25T02:05:57;6.57;;;3.78;;
13112;SDS011;6622;49.752;6.100;2022-08-25T02:08:23;4.43;;;3.83;;
13112;SDS011;6622;49.752;6.100;2022-08-25T02:10:50;3.90;;;3.20;;
13112;SDS011;6622;49.752;6.100;2022-08-25T02:13:17;5.03;;;3.40;;
13112;SDS011;6622;49.752;6.100;2022-08-25T02:15:45;4.20;;;3.60;;
13112;SDS011;6622;49.752;6.100;2022-08-25T02:18:10;5.33;;;3.40;;
13112;SDS011;6622;49.752;6.100;2022-08-25T02:20:36;4.97;;;4.00;;
13112;SDS011;6622;49.752;6.100;2022-08-25T02:23:03;4.77;;;3.73;;
13112;SDS011;6622;49.752;6.100;2022-08-25T02:25:30;4.20;;;3.77;;
13112;SDS011;6622;49.752;6.100;2022-08-25T02:27:56;6.37;;;3.93;;
13112;SDS011;6622;49.752;6.100;2022-08-25T02:30:23;4.17;;;3.77;;
13112;SDS011;6622;49.752;6.100;2022-08-25T02:32:50;4.33;;;3.60;;
13112;SDS011;6622;49.752;6.100;2022-08-25T02:35:16;4.00;;;3.57;;
13112;SDS011;6622;49.752;6.100;2022-08-25T02:37:43;3.47;;;3.17;;
13112;SDS011;6622;49.752;6.100;2022-08-25T02:40:10;3.67;;;3.23;;
13112;SDS011;6622;49.752;6.100;2022-08-25T02:42:36;6.93;;;3.83;;
13112;SDS011;6622;49.752;6.100;2022-08-25T02:45:03;5.10;;;3.17;;
13112;SDS011;6622;49.752;6.100;2022-08-25T02:47:29;4.23;;;3.37;;
13112;SDS011;6622;49.752;6.100;2022-08-25T02:49:56;4.30;;;3.40;;
13112;SDS011;6622;49.752;6.100;2022-08-25T02:52:23;3.93;;;3.20;;
13112;SDS011;6622;49.752;6.100;2022-08-25T02:54:50;4.67;;;3.57;;
13112;SDS011;6622;49.752;6.100;2022-08-25T02:57:17;6.97;;;3.33;;
13112;SDS011;6622;49.752;6.100;2022-08-25T02:59:43;6.83;;;4.13;;
13112;SDS011;6622;49.752;6.100;2022-08-25T03:02:10;7.20;;;3.63;;
13112;SDS011;6622;49.752;6.100;2022-08-25T03:04:36;3.77;;;3.37;;
13112;SDS011;6622;49.752;6.100;2022-08-25T03:07:03;5.00;;;3.27;;
13112;SDS011;6622;49.752;6.100;2022-08-25T03:09:30;5.33;;;3.73;;
13112;SDS011;6622;49.752;6.100;2022-08-25T03:11:56;5.33;;;4.10;;
13112;SDS011;6622;49.752;6.100;2022-08-25T03:14:23;6.60;;;3.67;;
13112;SDS011;6622;49.752;6.100;2022-08-25T03:16:50;4.67;;;3.70;;
13112;SDS011;6622;49.752;6.100;2022-08-25T03:19:16;5.90;;;3.90;;
13112;SDS011;6622;49.752;6.100;2022-08-25T03:21:44;6.15;;;4.50;;
13112;SDS011;6622;49.752;6.100;2022-08-25T03:24:10;5.17;;;4.00;;
13112;SDS011;6622;49.752;6.100;2022-08-25T03:26:37;6.97;;;4.00;;
13112;SDS011;6622;49.752;6.100;2022-08-25T03:29:22;4.83;;;4.20;;
13112;SDS011;6622;49.752;6.100;2022-08-25T03:31:48;5.10;;;4.20;;
13112;SDS011;6622;49.752;6.100;2022-08-25T03:34:15;5.30;;;3.80;;
13112;SDS011;6622;49.752;6.100;2022-08-25T03:36:45;8.40;;;4.03;;
13112;SDS011;6622;49.752;6.100;2022-08-25T03:39:10;5.40;;;3.83;;
13112;SDS011;6622;49.752;6.100;2022-08-25T03:41:38;7.20;;;3.90;;
13112;SDS011;6622;49.752;6.100;2022-08-25T03:44:05;4.83;;;3.73;;
13112;SDS011;6622;49.752;6.100;2022-08-25T03:46:38;4.83;;;3.63;;
13112;SDS011;6622;49.752;6.100;2022-08-25T03:49:04;4.20;;;3.43;;
13112;SDS011;6622;49.752;6.100;2022-08-25T03:51:34;5.53;;;3.60;;
13112;SDS011;6622;49.752;6.100;2022-08-25T03:53:57;5.10;;;3.95;;
13112;SDS011;6622;49.752;6.100;2022-08-25T03:56:23;4.23;;;3.60;;
13112;SDS011;6622;49.752;6.100;2022-08-25T03:58:50;5.03;;;3.53;;
13112;SDS011;6622;49.752;6.100;2022-08-25T04:01:17;4.97;;;3.50;;
13112;SDS011;6622;49.752;6.100;2022-08-25T04:03:44;3.90;;;3.30;;
13112;SDS011;6622;49.752;6.100;2022-08-25T04:06:11;6.07;;;3.67;;
13112;SDS011;6622;49.752;6.100;2022-08-25T04:08:37;6.83;;;3.43;;
13112;SDS011;6622;49.752;6.100;2022-08-25T04:11:08;4.93;;;3.83;;
13112;SDS011;6622;49.752;6.100;2022-08-25T04:13:34;4.10;;;3.33;;
13112;SDS011;6622;49.752;6.100;2022-08-25T04:16:01;4.20;;;3.30;;
13112;SDS011;6622;49.752;6.100;2022-08-25T04:18:27;4.10;;;3.70;;
13112;SDS011;6622;49.752;6.100;2022-08-25T04:21:00;3.73;;;3.43;;
13112;SDS011;6622;49.752;6.100;2022-08-25T04:23:21;3.70;;;3.20;;
13112;SDS011;6622;49.752;6.100;2022-08-25T04:25:47;3.70;;;3.30;;
13112;SDS011;6622;49.752;6.100;2022-08-25T04:28:14;5.63;;;3.97;;
13112;SDS011;6622;49.752;6.100;2022-08-25T04:30:41;3.87;;;3.13;;
13112;SDS011;6622;49.752;6.100;2022-08-25T04:33:08;3.83;;;3.27;;
13112;SDS011;6622;49.752;6.100;2022-08-25T04:35:34;4.63;;;4.10;;
13112;SDS011;6622;49.752;6.100;2022-08-25T04:38:02;5.57;;;3.67;;
13112;SDS011;6622;49.752;6.100;2022-08-25T04:40:28;6.80;;;3.60;;
13112;SDS011;6622;49.752;6.100;2022-08-25T04:42:55;4.43;;;3.77;;
13112;SDS011;6622;49.752;6.100;2022-08-25T04:45:22;3.87;;;3.43;;
13112;SDS011;6622;49.752;6.100;2022-08-25T04:47:49;4.77;;;3.83;;
13112;SDS011;6622;49.752;6.100;2022-08-25T04:50:16;4.80;;;3.43;;
13112;SDS011;6622;49.752;6.100;2022-08-25T04:52:42;5.83;;;4.00;;
13112;SDS011;6622;49.752;6.100;2022-08-25T04:55:09;7.37;;;4.03;;
13112;SDS011;6622;49.752;6.100;2022-08-25T04:57:36;4.63;;;3.40;;
13112;SDS011;6622;49.752;6.100;2022-08-25T05:00:03;4.17;;;3.10;;
13112;SDS011;6622;49.752;6.100;2022-08-25T05:02:30;7.40;;;3.57;;
13112;SDS011;6622;49.752;6.100;2022-08-25T05:04:57;3.93;;;3.33;;
13112;SDS011;6622;49.752;6.100;2022-08-25T05:07:24;4.37;;;3.47;;
13112;SDS011;6622;49.752;6.100;2022-08-25T05:09:50;4.00;;;3.43;;
13112;SDS011;6622;49.752;6.100;2022-08-25T05:12:17;4.73;;;3.90;;
13112;SDS011;6622;49.752;6.100;2022-08-25T05:14:44;6.77;;;4.17;;
13112;SDS011;6622;49.752;6.100;2022-08-25T05:17:10;3.70;;;3.40;;
13112;SDS011;6622;49.752;6.100;2022-08-25T05:19:37;6.05;;;4.25;;
13112;SDS011;6622;49.752;6.100;2022-08-25T05:22:03;6.67;;;4.20;;
13112;SDS011;6622;49.752;6.100;2022-08-25T05:24:30;3.77;;;3.47;;
13112;SDS011;6622;49.752;6.100;2022-08-25T05:26:57;4.00;;;3.60;;
13112;SDS011;6622;49.752;6.100;2022-08-25T05:29:24;9.40;;;3.80;;
13112;SDS011;6622;49.752;6.100;2022-08-25T05:31:51;7.13;;;3.60;;
13112;SDS011;6622;49.752;6.100;2022-08-25T05:34:18;4.43;;;3.53;;
13112;SDS011;6622;49.752;6.100;2022-08-25T05:36:44;6.90;;;3.70;;
13112;SDS011;6622;49.752;6.100;2022-08-25T05:39:11;6.90;;;4.33;;
13112;SDS011;6622;49.752;6.100;2022-08-25T05:41:38;5.63;;;3.70;;
13112;SDS011;6622;49.752;6.100;2022-08-25T05:44:05;6.67;;;4.50;;
13112;SDS011;6622;49.752;6.100;2022-08-25T05:46:31;5.53;;;4.37;;
13112;SDS011;6622;49.752;6.100;2022-08-25T05:48:59;6.90;;;4.20;;
13112;SDS011;6622;49.752;6.100;2022-08-25T05:51:25;6.23;;;4.30;;
13112;SDS011;6622;49.752;6.100;2022-08-25T05:53:52;4.63;;;3.50;;
13112;SDS011;6622;49.752;6.100;2022-08-25T05:56:18;6.97;;;4.03;;
13112;SDS011;6622;49.752;6.100;2022-08-25T05:58:45;5.70;;;4.10;;
13112;SDS011;6622;49.752;6.100;2022-08-25T06:01:19;6.50;;;4.40;;
13112;SDS011;6622;49.752;6.100;2022-08-25T06:04:05;5.33;;;3.93;;
13112;SDS011;6622;49.752;6.100;2022-08-25T06:06:32;6.95;;;4.70;;
13112;SDS011;6622;49.752;6.100;2022-08-25T06:09:00;5.27;;;4.37;;
13112;SDS011;6622;49.752;6.100;2022-08-25T06:11:25;5.07;;;3.85;;
13112;SDS011;6622;49.752;6.100;2022-08-25T06:13:52;5.07;;;3.60;;
13112;SDS011;6622;49.752;6.100;2022-08-25T06:16:18;6.47;;;3.40;;
13112;SDS011;6622;49.752;6.100;2022-08-25T06:18:45;5.90;;;3.50;;
13112;SDS011;6622;49.752;6.100;2022-08-25T06:21:12;4.82;;;3.62;;
13112;SDS011;6622;49.752;6.100;2022-08-25T06:23:39;4.07;;;3.67;;
13112;SDS011;6622;49.752;6.100;2022-08-25T06:26:05;6.85;;;4.00;;
13112;SDS011;6622;49.752;6.100;2022-08-25T06:28:32;7.20;;;3.85;;
13112;SDS011;6622;49.752;6.100;2022-08-25T06:30:59;7.65;;;3.55;;
13112;SDS011;6622;49.752;6.100;2022-08-25T06:33:25;9.88;;;3.65;;
13112;SDS011;6622;49.752;6.100;2022-08-25T06:35:52;6.25;;;3.80;;
13112;SDS011;6622;49.752;6.100;2022-08-25T06:38:19;5.75;;;3.47;;
13112;SDS011;6622;49.752;6.100;2022-08-25T06:40:46;6.78;;;3.97;;
13112;SDS011;6622;49.752;6.100;2022-08-25T06:43:12;11.27;;;4.03;;
13112;SDS011;6622;49.752;6.100;2022-08-25T06:45:39;5.10;;;3.47;;
13112;SDS011;6622;49.752;6.100;2022-08-25T06:48:06;3.97;;;3.47;;
13112;SDS011;6622;49.752;6.100;2022-08-25T06:50:33;4.62;;;3.12;;
13112;SDS011;6622;49.752;6.100;2022-08-25T06:52:59;4.90;;;3.42;;
13112;SDS011;6622;49.752;6.100;2022-08-25T06:55:26;4.22;;;3.28;;
13112;SDS011;6622;49.752;6.100;2022-08-25T06:57:53;7.87;;;3.33;;
13112;SDS011;6622;49.752;6.100;2022-08-25T07:00:20;8.45;;;3.80;;
13112;SDS011;6622;49.752;6.100;2022-08-25T07:02:47;3.35;;;3.05;;
13112;SDS011;6622;49.752;6.100;2022-08-25T07:05:13;4.95;;;3.45;;
13112;SDS011;6622;49.752;6.100;2022-08-25T07:07:41;3.72;;;3.10;;
13112;SDS011;6622;49.752;6.100;2022-08-25T07:10:08;9.00;;;3.35;;
13112;SDS011;6622;49.752;6.100;2022-08-25T07:12:34;4.57;;;3.05;;
13112;SDS011;6622;49.752;6.100;2022-08-25T07:15:01;4.00;;;2.90;;
13112;SDS011;6622;49.752;6.100;2022-08-25T07:17:27;7.10;;;2.65;;
13112;SDS011;6622;49.752;6.100;2022-08-25T07:19:54;3.50;;;2.90;;
13112;SDS011;6622;49.752;6.100;2022-08-25T07:22:21;4.45;;;2.55;;
13112;SDS011;6622;49.752;6.100;2022-08-25T07:24:47;5.33;;;2.70;;
13112;SDS011;6622;49.752;6.100;2022-08-25T07:27:14;3.47;;;2.58;;
13112;SDS011;6622;49.752;6.100;2022-08-25T07:29:41;3.22;;;2.20;;
13112;SDS011;6622;49.752;6.100;2022-08-25T07:32:07;3.73;;;2.30;;
13112;SDS011;6622;49.752;6.100;2022-08-25T07:34:34;3.25;;;2.33;;
13112;SDS011;6622;49.752;6.100;2022-08-25T07:37:19;5.20;;;2.30;;
13112;SDS011;6622;49.752;6.100;2022-08-25T07:39:45;4.07;;;2.67;;
13112;SDS011;6622;49.752;6.100;2022-08-25T07:42:12;5.28;;;2.50;;
13112;SDS011;6622;49.752;6.100;2022-08-25T07:44:38;2.30;;;2.10;;
13112;SDS011;6622;49.752;6.100;2022-08-25T07:47:05;3.05;;;2.37;;
13112;SDS011;6622;49.752;6.100;2022-08-25T07:49:32;3.05;;;2.08;;
13112;SDS011;6622;49.752;6.100;2022-08-25T07:51:58;2.97;;;2.20;;
13112;SDS011;6622;49.752;6.100;2022-08-25T07:54:26;4.07;;;1.98;;
13112;SDS011;6622;49.752;6.100;2022-08-25T07:56:52;2.53;;;2.08;;
13112;SDS011;6622;49.752;6.100;2022-08-25T07:59:19;4.18;;;2.10;;
13112;SDS011;6622;49.752;6.100;2022-08-25T08:01:45;4.50;;;2.03;;
13112;SDS011;6622;49.752;6.100;2022-08-25T08:04:13;3.25;;;1.90;;
13112;SDS011;6622;49.752;6.100;2022-08-25T08:06:39;2.20;;;2.00;;
13112;SDS011;6622;49.752;6.100;2022-08-25T08:09:06;2.28;;;2.03;;
13112;SDS011;6622;49.752;6.100;2022-08-25T08:11:34;3.17;;;2.20;;
13112;SDS011;6622;49.752;6.100;2022-08-25T08:14:00;3.30;;;2.10;;
13112;SDS011;6622;49.752;6.100;2022-08-25T08:16:27;5.12;;;2.20;;
13112;SDS011;6622;49.752;6.100;2022-08-25T08:18:53;5.15;;;1.80;;
13112;SDS011;6622;49.752;6.100;2022-08-25T08:21:23;4.57;;;2.15;;
13112;SDS011;6622;49.752;6.100;2022-08-25T08:23:50;3.10;;;2.20;;
13112;SDS011;6622;49.752;6.100;2022-08-25T08:26:16;2.17;;;1.80;;
13112;SDS011;6622;49.752;6.100;2022-08-25T08:28:43;2.67;;;2.33;;
13112;SDS011;6622;49.752;6.100;2022-08-25T08:31:09;5.97;;;2.03;;
13112;SDS011;6622;49.752;6.100;2022-08-25T08:33:36;3.00;;;2.40;;
13112;SDS011;6622;49.752;6.100;2022-08-25T08:36:05;2.30;;;2.08;;
13112;SDS011;6622;49.752;6.100;2022-08-25T08:38:30;5.25;;;2.20;;
13112;SDS011;6622;49.752;6.100;2022-08-25T08:43:53;3.03;;;2.10;;
13112;SDS011;6622;49.752;6.100;2022-08-25T08:46:17;2.50;;;2.17;;
13112;SDS011;6622;49.752;6.100;2022-08-25T08:48:48;2.77;;;2.30;;
13112;SDS011;6622;49.752;6.100;2022-08-25T08:51:30;3.53;;;2.13;;
13112;SDS011;6622;49.752;6.100;2022-08-25T08:54:00;2.85;;;2.20;;
13112;SDS011;6622;49.752;6.100;2022-08-25T08:56:28;3.35;;;2.15;;
13112;SDS011;6622;49.752;6.100;2022-08-25T08:58:55;2.17;;;1.98;;
13112;SDS011;6622;49.752;6.100;2022-08-25T09:01:32;3.05;;;2.10;;
13112;SDS011;6622;49.752;6.100;2022-08-25T09:06:48;2.05;;;1.85;;
13112;SDS011;6622;49.752;6.100;2022-08-25T09:09:17;3.15;;;2.00;;
13112;SDS011;6622;49.752;6.100;2022-08-25T09:12:04;3.70;;;2.00;;
13112;SDS011;6622;49.752;6.100;2022-08-25T09:14:41;2.00;;;1.90;;
13112;SDS011;6622;49.752;6.100;2022-08-25T09:17:05;3.08;;;1.80;;
13112;SDS011;6622;49.752;6.100;2022-08-25T09:20:02;2.20;;;2.00;;
13112;SDS011;6622;49.752;6.100;2022-08-25T09:28:19;2.80;;;2.17;;
13112;SDS011;6622;49.752;6.100;2022-08-25T09:30:52;2.10;;;1.85;;
13112;SDS011;6622;49.752;6.100;2022-08-25T09:33:29;2.30;;;1.80;;
13112;SDS011;6622;49.752;6.100;2022-08-25T09:35:55;2.62;;;1.87;;
13112;SDS011;6622;49.752;6.100;2022-08-25T09:38:22;3.20;;;1.70;;
13112;SDS011;6622;49.752;6.100;2022-08-25T09:40:50;2.75;;;2.20;;
13112;SDS011;6622;49.752;6.100;2022-08-25T09:48:32;3.28;;;2.33;;
13112;SDS011;6622;49.752;6.100;2022-08-25T09:51:01;2.15;;;1.87;;
13112;SDS011;6622;49.752;6.100;2022-08-25T09:53:24;4.82;;;2.28;;
13112;SDS011;6622;49.752;6.100;2022-08-25T09:55:58;2.35;;;2.15;;
13112;SDS011;6622;49.752;6.100;2022-08-25T09:58:21;3.62;;;2.20;;
13112;SDS011;6622;49.752;6.100;2022-08-25T10:01:33;3.15;;;2.17;;
13112;SDS011;6622;49.752;6.100;2022-08-25T10:03:33;3.92;;;2.50;;
13112;SDS011;6622;49.752;6.100;2022-08-25T10:06:04;4.20;;;2.10;;
13112;SDS011;6622;49.752;6.100;2022-08-25T10:08:39;2.53;;;2.22;;
13112;SDS011;6622;49.752;6.100;2022-08-25T10:11:07;2.30;;;2.10;;
13112;SDS011;6622;49.752;6.100;2022-08-25T10:13:34;2.50;;;2.30;;
13112;SDS011;6622;49.752;6.100;2022-08-25T10:16:23;3.53;;;2.30;;
13112;SDS011;6622;49.752;6.100;2022-08-25T10:19:05;2.37;;;2.10;;
13112;SDS011;6622;49.752;6.100;2022-08-25T10:21:33;3.58;;;2.10;;
13112;SDS011;6622;49.752;6.100;2022-08-25T10:23:59;2.57;;;2.07;;
13112;SDS011;6622;49.752;6.100;2022-08-25T10:26:35;3.35;;;1.75;;
13112;SDS011;6622;49.752;6.100;2022-08-25T10:31:56;2.58;;;2.12;;
13112;SDS011;6622;49.752;6.100;2022-08-25T10:34:40;2.78;;;2.20;;
13112;SDS011;6622;49.752;6.100;2022-08-25T10:42:29;2.37;;;2.17;;
13112;SDS011;6622;49.752;6.100;2022-08-25T10:45:31;3.20;;;1.98;;
13112;SDS011;6622;49.752;6.100;2022-08-25T10:48:04;2.58;;;2.05;;
13112;SDS011;6622;49.752;6.100;2022-08-25T10:53:22;3.65;;;2.33;;
13112;SDS011;6622;49.752;6.100;2022-08-25T10:58:25;3.05;;;1.98;;
13112;SDS011;6622;49.752;6.100;2022-08-25T11:00:58;2.12;;;1.92;;
13112;SDS011;6622;49.752;6.100;2022-08-25T11:03:34;4.62;;;2.00;;
13112;SDS011;6622;49.752;6.100;2022-08-25T11:06:01;2.50;;;2.00;;
13112;SDS011;6622;49.752;6.100;2022-08-25T11:08:34;2.28;;;2.00;;
13112;SDS011;6622;49.752;6.100;2022-08-25T11:13:59;2.17;;;1.67;;
13112;SDS011;6622;49.752;6.100;2022-08-25T11:19:06;3.62;;;1.70;;
13112;SDS011;6622;49.752;6.100;2022-08-25T11:21:38;2.62;;;1.85;;
13112;SDS011;6622;49.752;6.100;2022-08-25T11:24:21;2.87;;;1.80;;
13112;SDS011;6622;49.752;6.100;2022-08-25T11:26:39;2.17;;;1.98;;
13112;SDS011;6622;49.752;6.100;2022-08-25T11:29:12;2.28;;;2.00;;
13112;SDS011;6622;49.752;6.100;2022-08-25T11:31:41;4.87;;;1.73;;
13112;SDS011;6622;49.752;6.100;2022-08-25T11:34:07;2.12;;;1.90;;
13112;SDS011;6622;49.752;6.100;2022-08-25T11:36:36;2.00;;;1.90;;
13112;SDS011;6622;49.752;6.100;2022-08-25T11:49:52;2.30;;;2.00;;
13112;SDS011;6622;49.752;6.100;2022-08-25T11:57:42;2.33;;;2.00;;
13112;SDS011;6622;49.752;6.100;2022-08-25T12:00:10;2.17;;;1.83;;
13112;SDS011;6622;49.752;6.100;2022-08-25T12:02:36;2.10;;;1.90;;
13112;SDS011;6622;49.752;6.100;2022-08-25T12:05:06;2.78;;;2.10;;
13112;SDS011;6622;49.752;6.100;2022-08-25T12:10:14;2.37;;;1.80;;
13112;SDS011;6622;49.752;6.100;2022-08-25T12:15:13;2.28;;;1.77;;
13112;SDS011;6622;49.752;6.100;2022-08-25T12:21:27;2.65;;;1.92;;
13112;SDS011;6622;49.752;6.100;2022-08-25T12:23:34;1.55;;;1.45;;
13112;SDS011;6622;49.752;6.100;2022-08-25T12:26:14;2.22;;;1.95;;
13112;SDS011;6622;49.752;6.100;2022-08-25T12:29:04;2.62;;;1.95;;
13112;SDS011;6622;49.752;6.100;2022-08-25T12:36:55;3.20;;;2.07;;
13112;SDS011;6622;49.752;6.100;2022-08-25T12:39:22;2.40;;;2.10;;
13112;SDS011;6622;49.752;6.100;2022-08-25T12:41:55;2.10;;;1.62;;
13112;SDS011;6622;49.752;6.100;2022-08-25T12:44:39;2.00;;;1.80;;
13112;SDS011;6622;49.752;6.100;2022-08-25T12:47:10;2.40;;;1.77;;
13112;SDS011;6622;49.752;6.100;2022-08-25T12:49:33;2.85;;;1.85;;
13112;SDS011;6622;49.752;6.100;2022-08-25T12:52:01;4.12;;;2.10;;
13112;SDS011;6622;49.752;6.100;2022-08-25T12:59:53;2.70;;;1.92;;
13112;SDS011;6622;49.752;6.100;2022-08-25T13:08:12;4.28;;;2.40;;
13112;SDS011;6622;49.752;6.100;2022-08-25T13:13:34;2.80;;;2.50;;
13112;SDS011;6622;49.752;6.100;2022-08-25T13:16:01;2.62;;;1.92;;
13112;SDS011;6622;49.752;6.100;2022-08-25T13:18:28;3.35;;;2.22;;
13112;SDS011;6622;49.752;6.100;2022-08-25T13:21:05;2.20;;;2.00;;
13112;SDS011;6622;49.752;6.100;2022-08-25T13:23:29;2.30;;;2.10;;
13112;SDS011;6622;49.752;6.100;2022-08-25T13:25:56;2.75;;;2.25;;
13112;SDS011;6622;49.752;6.100;2022-08-25T13:28:28;2.87;;;2.08;;
13112;SDS011;6622;49.752;6.100;2022-08-25T13:30:56;2.20;;;2.00;;
13112;SDS011;6622;49.752;6.100;2022-08-25T13:33:22;2.70;;;2.05;;
13112;SDS011;6622;49.752;6.100;2022-08-25T13:35:49;2.55;;;2.22;;
13112;SDS011;6622;49.752;6.100;2022-08-25T13:38:16;3.17;;;2.30;;
13112;SDS011;6622;49.752;6.100;2022-08-25T13:40:41;3.97;;;2.30;;
13112;SDS011;6622;49.752;6.100;2022-08-25T13:43:09;2.20;;;1.92;;
13112;SDS011;6622;49.752;6.100;2022-08-25T13:45:43;2.15;;;2.00;;
13112;SDS011;6622;49.752;6.100;2022-08-25T13:48:04;3.53;;;2.35;;
13112;SDS011;6622;49.752;6.100;2022-08-25T13:50:32;3.80;;;2.03;;
13112;SDS011;6622;49.752;6.100;2022-08-25T13:53:05;2.40;;;2.03;;
13112;SDS011;6622;49.752;6.100;2022-08-25T13:55:38;2.55;;;2.12;;
13112;SDS011;6622;49.752;6.100;2022-08-25T13:58:04;2.55;;;2.35;;
13112;SDS011;6622;49.752;6.100;2022-08-25T14:00:35;3.00;;;2.20;;
13112;SDS011;6622;49.752;6.100;2022-08-25T14:02:57;2.30;;;2.10;;
13112;SDS011;6622;49.752;6.100;2022-08-25T14:05:43;2.62;;;2.42;;
13112;SDS011;6622;49.752;6.100;2022-08-25T14:08:03;2.20;;;2.00;;
13112;SDS011;6622;49.752;6.100;2022-08-25T14:10:31;2.35;;;1.87;;
13112;SDS011;6622;49.752;6.100;2022-08-25T14:13:07;2.10;;;1.70;;
13112;SDS011;6622;49.752;6.100;2022-08-25T14:15:34;2.20;;;2.00;;
13112;SDS011;6622;49.752;6.100;2022-08-25T14:18:05;2.83;;;2.17;;
13112;SDS011;6622;49.752;6.100;2022-08-25T14:20:32;3.37;;;2.45;;
13112;SDS011;6622;49.752;6.100;2022-08-25T14:23:01;3.30;;;2.40;;
13112;SDS011;6622;49.752;6.100;2022-08-25T14:25:25;3.70;;;2.20;;
13112;SDS011;6622;49.752;6.100;2022-08-25T14:27:55;2.75;;;2.22;;
13112;SDS011;6622;49.752;6.100;2022-08-25T14:30:21;2.95;;;2.30;;
13112;SDS011;6622;49.752;6.100;2022-08-25T14:32:47;3.95;;;2.17;;
13112;SDS011;6622;49.752;6.100;2022-08-25T14:35:14;3.95;;;2.15;;
13112;SDS011;6622;49.752;6.100;2022-08-25T14:37:41;3.37;;;2.33;;
13112;SDS011;6622;49.752;6.100;2022-08-25T14:40:08;2.03;;;1.83;;
13112;SDS011;6622;49.752;6.100;2022-08-25T14:42:36;2.33;;;2.10;;
13112;SDS011;6622;49.752;6.100;2022-08-25T14:45:02;3.05;;;2.10;;
13112;SDS011;6622;49.752;6.100;2022-08-25T14:47:29;2.55;;;2.10;;
13112;SDS011;6622;49.752;6.100;2022-08-25T14:49:57;2.37;;;2.17;;
13112;SDS011;6622;49.752;6.100;2022-08-25T14:52:25;3.08;;;1.98;;
13112;SDS011;6622;49.752;6.100;2022-08-25T14:54:50;2.20;;;2.00;;
13112;SDS011;6622;49.752;6.100;2022-08-25T14:57:17;3.75;;;3.25;;
13112;SDS011;6622;49.752;6.100;2022-08-25T14:59:43;4.32;;;1.90;;
13112;SDS011;6622;49.752;6.100;2022-08-25T15:02:11;2.45;;;2.08;;
13112;SDS011;6622;49.752;6.100;2022-08-25T15:04:37;5.50;;;2.60;;
13112;SDS011;6622;49.752;6.100;2022-08-25T15:07:03;2.72;;;2.22;;
13112;SDS011;6622;49.752;6.100;2022-08-25T15:09:33;2.42;;;2.12;;
13112;SDS011;6622;49.752;6.100;2022-08-25T15:11:59;2.30;;;2.10;;
13112;SDS011;6622;49.752;6.100;2022-08-25T15:14:26;2.50;;;2.30;;
13112;SDS011;6622;49.752;6.100;2022-08-25T15:16:53;3.55;;;2.12;;
13112;SDS011;6622;49.752;6.100;2022-08-25T15:19:20;1.80;;;1.70;;
13112;SDS011;6622;49.752;6.100;2022-08-25T15:21:46;5.45;;;2.53;;
13112;SDS011;6622;49.752;6.100;2022-08-25T15:24:13;3.55;;;2.20;;
13112;SDS011;6622;49.752;6.100;2022-08-25T15:26:41;1.90;;;1.80;;
13112;SDS011;6622;49.752;6.100;2022-08-25T15:29:06;2.33;;;1.92;;
13112;SDS011;6622;49.752;6.100;2022-08-25T15:31:32;4.37;;;2.30;;
13112;SDS011;6622;49.752;6.100;2022-08-25T15:33:59;2.22;;;2.00;;
13112;SDS011;6622;49.752;6.100;2022-08-25T15:36:26;2.78;;;2.05;;
13112;SDS011;6622;49.752;6.100;2022-08-25T15:38:52;3.53;;;2.28;;
13112;SDS011;6622;49.752;6.100;2022-08-25T15:41:19;2.00;;;1.80;;
13112;SDS011;6622;49.752;6.100;2022-08-25T15:43:45;2.70;;;1.75;;
13112;SDS011;6622;49.752;6.100;2022-08-25T15:46:14;4.60;;;2.10;;
13112;SDS011;6622;49.752;6.100;2022-08-25T15:48:39;1.95;;;1.35;;
13112;SDS011;6622;49.752;6.100;2022-08-25T15:51:06;3.20;;;2.25;;
13112;SDS011;6622;49.752;6.100;2022-08-25T15:53:33;2.47;;;1.80;;
13112;SDS011;6622;49.752;6.100;2022-08-25T15:56:00;2.55;;;2.15;;
13112;SDS011;6622;49.752;6.100;2022-08-25T15:58:27;2.35;;;2.03;;
13112;SDS011;6622;49.752;6.100;2022-08-25T16:00:53;2.53;;;2.10;;
13112;SDS011;6622;49.752;6.100;2022-08-25T16:03:20;2.72;;;2.00;;
13112;SDS011;6622;49.752;6.100;2022-08-25T16:05:47;2.67;;;2.07;;
13112;SDS011;6622;49.752;6.100;2022-08-25T16:08:14;1.95;;;1.80;;
13112;SDS011;6622;49.752;6.100;2022-08-25T16:10:41;2.20;;;1.70;;
13112;SDS011;6622;49.752;6.100;2022-08-25T16:13:08;2.40;;;2.10;;
13112;SDS011;6622;49.752;6.100;2022-08-25T16:15:35;3.03;;;1.85;;
13112;SDS011;6622;49.752;6.100;2022-08-25T16:18:02;1.92;;;1.80;;
13112;SDS011;6622;49.752;6.100;2022-08-25T16:20:29;2.00;;;1.77;;
13112;SDS011;6622;49.752;6.100;2022-08-25T16:22:55;3.20;;;1.87;;
13112;SDS011;6622;49.752;6.100;2022-08-25T16:25:21;4.28;;;1.65;;
13112;SDS011;6622;49.752;6.100;2022-08-25T16:27:49;2.37;;;1.95;;